sensor_id;sensor_type;location;lat;lon;timestamp;P1;durP1;ratioP1;P2;durP2;ratioP2
18568;SDS011;14780;48.316;-1.050;2022-08-11T00:02:25;1.10;;;0.73;;
18568;SDS011;14780;48.316;-1.050;2022-08-11T00:05:13;1.00;;;0.73;;
18568;SDS011;14780;48.316;-1.050;2022-08-11T00:08:00;1.38;;;0.85;;
18568;SDS011;14780;48.316;-1.050;2022-08-11T00:10:46;1.20;;;0.73;;
18568;SDS011;14780;48.316;-1.050;2022-08-11T00:13:45;1.23;;;0.70;;
18568;SDS011;14780;48.316;-1.050;2022-08-11T00:16:32;1.17;;;0.70;;
18568;SDS011;14780;48.316;-1.050;2022-08-11T00:19:20;0.90;;;0.60;;
18568;SDS011;14780;48.316;-1.050;2022-08-11T00:22:06;1.63;;;0.80;;
18568;SDS011;14780;48.316;-1.050;2022-08-11T00:24:53;2.15;;;0.75;;
18568;SDS011;14780;48.316;-1.050;2022-08-11T00:27:40;2.55;;;0.70;;
18568;SDS011;14780;48.316;-1.050;2022-08-11T00:30:25;0.98;;;0.70;;
18568;SDS011;14780;48.316;-1.050;2022-08-11T00:33:23;1.05;;;0.70;;
18568;SDS011;14780;48.316;-1.050;2022-08-11T00:36:18;0.95;;;0.70;;
18568;SDS011;14780;48.316;-1.050;2022-08-11T00:39:06;1.00;;;0.70;;
18568;SDS011;14780;48.316;-1.050;2022-08-11T00:45:06;1.63;;;0.90;;
18568;SDS011;14780;48.316;-1.050;2022-08-11T00:51:14;1.20;;;0.70;;
18568;SDS011;14780;48.316;-1.050;2022-08-11T01:00:25;0.98;;;0.70;;
18568;SDS011;14780;48.316;-1.050;2022-08-11T01:18:46;1.40;;;0.85;;
18568;SDS011;14780;48.316;-1.050;2022-08-11T01:34:20;0.95;;;0.60;;
18568;SDS011;14780;48.316;-1.050;2022-08-11T01:37:52;2.00;;;0.70;;
18568;SDS011;14780;48.316;-1.050;2022-08-11T01:41:13;1.13;;;0.80;;
18568;SDS011;14780;48.316;-1.050;2022-08-11T01:44:11;1.38;;;0.60;;
18568;SDS011;14780;48.316;-1.050;2022-08-11T01:50:37;0.85;;;0.68;;
18568;SDS011;14780;48.316;-1.050;2022-08-11T01:53:37;1.45;;;0.70;;
18568;SDS011;14780;48.316;-1.050;2022-08-11T02:03:04;1.20;;;0.75;;
18568;SDS011;14780;48.316;-1.050;2022-08-11T02:12:46;1.50;;;0.73;;
18568;SDS011;14780;48.316;-1.050;2022-08-11T02:15:38;1.55;;;0.80;;
18568;SDS011;14780;48.316;-1.050;2022-08-11T02:18:33;1.20;;;0.70;;
18568;SDS011;14780;48.316;-1.050;2022-08-11T02:21:59;1.05;;;0.60;;
18568;SDS011;14780;48.316;-1.050;2022-08-11T02:28:16;0.88;;;0.60;;
18568;SDS011;14780;48.316;-1.050;2022-08-11T02:43:40;1.10;;;0.68;;
18568;SDS011;14780;48.316;-1.050;2022-08-11T02:46:41;1.52;;;0.80;;
18568;SDS011;14780;48.316;-1.050;2022-08-11T02:49:40;1.40;;;0.80;;
18568;SDS011;14780;48.316;-1.050;2022-08-11T02:56:05;1.20;;;0.80;;
18568;SDS011;14780;48.316;-1.050;2022-08-11T02:59:07;1.15;;;0.73;;
18568;SDS011;14780;48.316;-1.050;2022-08-11T03:15:01;1.00;;;0.70;;
18568;SDS011;14780;48.316;-1.050;2022-08-11T03:21:20;1.50;;;0.95;;
18568;SDS011;14780;48.316;-1.050;2022-08-11T03:24:20;1.60;;;0.93;;
18568;SDS011;14780;48.316;-1.050;2022-08-11T03:27:32;1.05;;;0.68;;
18568;SDS011;14780;48.316;-1.050;2022-08-11T03:30:38;1.23;;;0.80;;
18568;SDS011;14780;48.316;-1.050;2022-08-11T03:33:37;1.48;;;0.90;;
18568;SDS011;14780;48.316;-1.050;2022-08-11T03:40:38;1.98;;;0.60;;
18568;SDS011;14780;48.316;-1.050;2022-08-11T03:53:01;1.80;;;0.80;;
18568;SDS011;14780;48.316;-1.050;2022-08-11T04:02:29;1.73;;;0.82;;
18568;SDS011;14780;48.316;-1.050;2022-08-11T04:18:16;1.30;;;0.80;;
18568;SDS011;14780;48.316;-1.050;2022-08-11T04:25:19;1.30;;;0.85;;
18568;SDS011;14780;48.316;-1.050;2022-08-11T04:31:23;1.20;;;0.90;;
18568;SDS011;14780;48.316;-1.050;2022-08-11T04:34:39;1.38;;;0.70;;
18568;SDS011;14780;48.316;-1.050;2022-08-11T04:44:14;1.00;;;0.85;;
18568;SDS011;14780;48.316;-1.050;2022-08-11T04:54:41;1.40;;;0.80;;
18568;SDS011;14780;48.316;-1.050;2022-08-11T04:58:24;1.00;;;0.70;;
18568;SDS011;14780;48.316;-1.050;2022-08-11T05:08:37;0.85;;;0.70;;
18568;SDS011;14780;48.316;-1.050;2022-08-11T05:11:52;1.23;;;0.80;;
18568;SDS011;14780;48.316;-1.050;2022-08-11T05:15:03;1.05;;;0.80;;
18568;SDS011;14780;48.316;-1.050;2022-08-11T05:18:09;1.65;;;0.85;;
18568;SDS011;14780;48.316;-1.050;2022-08-11T05:21:18;1.50;;;1.00;;
18568;SDS011;14780;48.316;-1.050;2022-08-11T05:24:29;1.25;;;0.70;;
18568;SDS011;14780;48.316;-1.050;2022-08-11T05:27:44;0.93;;;0.70;;
18568;SDS011;14780;48.316;-1.050;2022-08-11T05:30:56;1.38;;;0.70;;
18568;SDS011;14780;48.316;-1.050;2022-08-11T05:34:16;1.13;;;0.90;;
18568;SDS011;14780;48.316;-1.050;2022-08-11T05:37:42;1.13;;;0.82;;
18568;SDS011;14780;48.316;-1.050;2022-08-11T05:43:53;1.45;;;0.90;;
18568;SDS011;14780;48.316;-1.050;2022-08-11T05:47:00;1.38;;;0.80;;
18568;SDS011;14780;48.316;-1.050;2022-08-11T05:50:06;1.13;;;0.80;;
18568;SDS011;14780;48.316;-1.050;2022-08-11T05:53:15;1.53;;;0.83;;
18568;SDS011;14780;48.316;-1.050;2022-08-11T05:56:19;1.10;;;0.73;;
18568;SDS011;14780;48.316;-1.050;2022-08-11T05:59:04;1.13;;;0.90;;
18568;SDS011;14780;48.316;-1.050;2022-08-11T06:02:04;1.15;;;0.70;;
18568;SDS011;14780;48.316;-1.050;2022-08-11T06:04:57;1.08;;;0.77;;
18568;SDS011;14780;48.316;-1.050;2022-08-11T06:07:44;1.70;;;1.00;;
18568;SDS011;14780;48.316;-1.050;2022-08-11T06:10:32;1.20;;;0.70;;
18568;SDS011;14780;48.316;-1.050;2022-08-11T06:13:19;1.40;;;0.82;;
18568;SDS011;14780;48.316;-1.050;2022-08-11T06:16:06;1.60;;;0.95;;
18568;SDS011;14780;48.316;-1.050;2022-08-11T06:18:52;1.35;;;0.82;;
18568;SDS011;14780;48.316;-1.050;2022-08-11T06:21:42;1.33;;;0.90;;
18568;SDS011;14780;48.316;-1.050;2022-08-11T06:24:30;1.17;;;0.88;;
18568;SDS011;14780;48.316;-1.050;2022-08-11T06:27:20;1.95;;;0.90;;
18568;SDS011;14780;48.316;-1.050;2022-08-11T06:30:09;1.38;;;1.05;;
18568;SDS011;14780;48.316;-1.050;2022-08-11T06:32:57;1.05;;;0.70;;
18568;SDS011;14780;48.316;-1.050;2022-08-11T06:35:49;1.13;;;0.70;;
18568;SDS011;14780;48.316;-1.050;2022-08-11T06:39:01;1.08;;;0.60;;
18568;SDS011;14780;48.316;-1.050;2022-08-11T06:47:53;1.75;;;0.90;;
18568;SDS011;14780;48.316;-1.050;2022-08-11T06:51:02;1.00;;;0.80;;
18568;SDS011;14780;48.316;-1.050;2022-08-11T06:53:56;1.45;;;0.80;;
18568;SDS011;14780;48.316;-1.050;2022-08-11T06:56:44;1.63;;;1.02;;
18568;SDS011;14780;48.316;-1.050;2022-08-11T06:59:49;1.42;;;0.93;;
18568;SDS011;14780;48.316;-1.050;2022-08-11T07:03:09;1.55;;;1.00;;
18568;SDS011;14780;48.316;-1.050;2022-08-11T07:06:20;1.42;;;0.80;;
18568;SDS011;14780;48.316;-1.050;2022-08-11T07:09:23;1.55;;;0.80;;
18568;SDS011;14780;48.316;-1.050;2022-08-11T07:12:53;1.23;;;0.93;;
18568;SDS011;14780;48.316;-1.050;2022-08-11T07:16:01;1.40;;;0.90;;
18568;SDS011;14780;48.316;-1.050;2022-08-11T07:18:46;1.17;;;0.85;;
18568;SDS011;14780;48.316;-1.050;2022-08-11T07:21:52;1.45;;;0.95;;
18568;SDS011;14780;48.316;-1.050;2022-08-11T07:25:00;1.10;;;0.77;;
18568;SDS011;14780;48.316;-1.050;2022-08-11T07:28:17;1.73;;;1.00;;
18568;SDS011;14780;48.316;-1.050;2022-08-11T07:31:36;1.63;;;1.08;;
18568;SDS011;14780;48.316;-1.050;2022-08-11T07:34:33;2.08;;;1.05;;
18568;SDS011;14780;48.316;-1.050;2022-08-11T07:37:20;1.70;;;0.85;;
18568;SDS011;14780;48.316;-1.050;2022-08-11T07:40:08;1.58;;;0.90;;
18568;SDS011;14780;48.316;-1.050;2022-08-11T07:42:54;2.13;;;1.10;;
18568;SDS011;14780;48.316;-1.050;2022-08-11T07:45:42;1.50;;;1.00;;
18568;SDS011;14780;48.316;-1.050;2022-08-11T07:48:46;1.55;;;0.90;;
18568;SDS011;14780;48.316;-1.050;2022-08-11T07:51:50;1.33;;;0.85;;
18568;SDS011;14780;48.316;-1.050;2022-08-11T07:57:51;0.98;;;0.70;;
18568;SDS011;14780;48.316;-1.050;2022-08-11T08:00:56;1.17;;;0.75;;
18568;SDS011;14780;48.316;-1.050;2022-08-11T08:04:00;1.42;;;0.80;;
18568;SDS011;14780;48.316;-1.050;2022-08-11T08:07:06;1.10;;;0.90;;
18568;SDS011;14780;48.316;-1.050;2022-08-11T08:10:09;1.30;;;0.90;;
18568;SDS011;14780;48.316;-1.050;2022-08-11T08:13:13;1.30;;;0.82;;
18568;SDS011;14780;48.316;-1.050;2022-08-11T08:16:18;1.42;;;0.80;;
18568;SDS011;14780;48.316;-1.050;2022-08-11T08:19:23;1.45;;;0.90;;
18568;SDS011;14780;48.316;-1.050;2022-08-11T08:22:09;1.48;;;0.90;;
18568;SDS011;14780;48.316;-1.050;2022-08-11T08:24:55;1.50;;;1.05;;
18568;SDS011;14780;48.316;-1.050;2022-08-11T08:27:40;0.95;;;0.70;;
18568;SDS011;14780;48.316;-1.050;2022-08-11T08:30:26;1.63;;;0.90;;
18568;SDS011;14780;48.316;-1.050;2022-08-11T08:33:30;1.40;;;0.93;;
18568;SDS011;14780;48.316;-1.050;2022-08-11T08:36:15;1.50;;;0.80;;
18568;SDS011;14780;48.316;-1.050;2022-08-11T08:39:05;1.33;;;0.73;;
18568;SDS011;14780;48.316;-1.050;2022-08-11T08:41:53;1.48;;;1.10;;
18568;SDS011;14780;48.316;-1.050;2022-08-11T08:47:29;1.85;;;1.00;;
18568;SDS011;14780;48.316;-1.050;2022-08-11T08:50:20;1.52;;;0.90;;
18568;SDS011;14780;48.316;-1.050;2022-08-11T08:53:30;2.05;;;1.00;;
18568;SDS011;14780;48.316;-1.050;2022-08-11T08:56:17;1.40;;;0.70;;
18568;SDS011;14780;48.316;-1.050;2022-08-11T08:59:11;0.90;;;0.68;;
18568;SDS011;14780;48.316;-1.050;2022-08-11T09:02:07;1.40;;;0.82;;
18568;SDS011;14780;48.316;-1.050;2022-08-11T09:04:55;1.20;;;0.70;;
18568;SDS011;14780;48.316;-1.050;2022-08-11T09:07:42;1.73;;;0.93;;
18568;SDS011;14780;48.316;-1.050;2022-08-11T09:10:30;1.30;;;0.80;;
18568;SDS011;14780;48.316;-1.050;2022-08-11T09:13:15;1.67;;;1.05;;
18568;SDS011;14780;48.316;-1.050;2022-08-11T09:16:01;1.27;;;0.88;;
18568;SDS011;14780;48.316;-1.050;2022-08-11T09:18:48;1.75;;;0.90;;
18568;SDS011;14780;48.316;-1.050;2022-08-11T09:21:35;1.35;;;0.93;;
18568;SDS011;14780;48.316;-1.050;2022-08-11T09:24:24;1.05;;;0.73;;
18568;SDS011;14780;48.316;-1.050;2022-08-11T09:27:28;1.25;;;0.80;;
18568;SDS011;14780;48.316;-1.050;2022-08-11T09:30:12;1.23;;;0.90;;
18568;SDS011;14780;48.316;-1.050;2022-08-11T09:32:58;1.25;;;0.93;;
18568;SDS011;14780;48.316;-1.050;2022-08-11T09:35:48;1.23;;;0.90;;
18568;SDS011;14780;48.316;-1.050;2022-08-11T09:38:35;1.52;;;0.90;;
18568;SDS011;14780;48.316;-1.050;2022-08-11T09:41:38;1.25;;;0.80;;
18568;SDS011;14780;48.316;-1.050;2022-08-11T09:44:26;1.77;;;0.90;;
18568;SDS011;14780;48.316;-1.050;2022-08-11T09:47:30;1.17;;;0.90;;
18568;SDS011;14780;48.316;-1.050;2022-08-11T09:50:18;1.25;;;0.88;;
18568;SDS011;14780;48.316;-1.050;2022-08-11T09:53:03;0.98;;;0.75;;
18568;SDS011;14780;48.316;-1.050;2022-08-11T09:55:48;1.27;;;0.88;;
18568;SDS011;14780;48.316;-1.050;2022-08-11T09:58:34;1.35;;;0.80;;
18568;SDS011;14780;48.316;-1.050;2022-08-11T10:01:20;2.25;;;0.90;;
18568;SDS011;14780;48.316;-1.050;2022-08-11T10:07:01;1.33;;;0.80;;
18568;SDS011;14780;48.316;-1.050;2022-08-11T10:09:55;1.48;;;0.95;;
18568;SDS011;14780;48.316;-1.050;2022-08-11T10:12:46;1.50;;;1.00;;
18568;SDS011;14780;48.316;-1.050;2022-08-11T10:15:34;3.05;;;1.00;;
18568;SDS011;14780;48.316;-1.050;2022-08-11T10:18:28;1.50;;;0.85;;
18568;SDS011;14780;48.316;-1.050;2022-08-11T10:21:51;1.13;;;0.77;;
18568;SDS011;14780;48.316;-1.050;2022-08-11T10:24:56;1.30;;;0.90;;
18568;SDS011;14780;48.316;-1.050;2022-08-11T10:28:02;1.00;;;0.80;;
18568;SDS011;14780;48.316;-1.050;2022-08-11T10:30:50;1.65;;;0.82;;
18568;SDS011;14780;48.316;-1.050;2022-08-11T10:33:54;1.55;;;0.90;;
18568;SDS011;14780;48.316;-1.050;2022-08-11T10:36:43;1.52;;;0.80;;
18568;SDS011;14780;48.316;-1.050;2022-08-11T10:39:32;1.58;;;1.08;;
18568;SDS011;14780;48.316;-1.050;2022-08-11T10:42:18;1.58;;;0.90;;
18568;SDS011;14780;48.316;-1.050;2022-08-11T10:45:23;0.88;;;0.60;;
18568;SDS011;14780;48.316;-1.050;2022-08-11T10:48:27;1.30;;;0.80;;
18568;SDS011;14780;48.316;-1.050;2022-08-11T10:51:14;1.38;;;0.80;;
18568;SDS011;14780;48.316;-1.050;2022-08-11T10:54:00;1.45;;;0.90;;
18568;SDS011;14780;48.316;-1.050;2022-08-11T10:57:04;0.98;;;0.80;;
18568;SDS011;14780;48.316;-1.050;2022-08-11T11:00:09;1.38;;;0.98;;
18568;SDS011;14780;48.316;-1.050;2022-08-11T11:02:57;1.08;;;0.80;;
18568;SDS011;14780;48.316;-1.050;2022-08-11T11:05:44;1.30;;;0.95;;
18568;SDS011;14780;48.316;-1.050;2022-08-11T11:08:31;1.10;;;0.80;;
18568;SDS011;14780;48.316;-1.050;2022-08-11T11:11:38;1.27;;;0.70;;
18568;SDS011;14780;48.316;-1.050;2022-08-11T11:15:06;1.38;;;0.80;;
18568;SDS011;14780;48.316;-1.050;2022-08-11T11:18:14;0.90;;;0.77;;
18568;SDS011;14780;48.316;-1.050;2022-08-11T11:21:06;1.00;;;0.70;;
18568;SDS011;14780;48.316;-1.050;2022-08-11T11:23:55;1.38;;;0.85;;
18568;SDS011;14780;48.316;-1.050;2022-08-11T11:30:07;0.95;;;0.70;;
18568;SDS011;14780;48.316;-1.050;2022-08-11T11:38:59;1.20;;;0.70;;
18568;SDS011;14780;48.316;-1.050;2022-08-11T11:41:45;1.92;;;0.90;;
18568;SDS011;14780;48.316;-1.050;2022-08-11T11:44:32;1.40;;;0.80;;
18568;SDS011;14780;48.316;-1.050;2022-08-11T11:47:19;1.70;;;0.98;;
18568;SDS011;14780;48.316;-1.050;2022-08-11T11:50:05;1.27;;;0.80;;
18568;SDS011;14780;48.316;-1.050;2022-08-11T11:52:51;1.17;;;0.70;;
18568;SDS011;14780;48.316;-1.050;2022-08-11T11:55:38;1.63;;;1.05;;
18568;SDS011;14780;48.316;-1.050;2022-08-11T11:58:23;1.45;;;1.05;;
18568;SDS011;14780;48.316;-1.050;2022-08-11T12:01:28;1.10;;;0.90;;
18568;SDS011;14780;48.316;-1.050;2022-08-11T12:04:14;1.40;;;0.98;;
18568;SDS011;14780;48.316;-1.050;2022-08-11T12:07:02;0.85;;;0.57;;
18568;SDS011;14780;48.316;-1.050;2022-08-11T12:10:09;1.20;;;0.80;;
18568;SDS011;14780;48.316;-1.050;2022-08-11T12:12:54;1.00;;;0.70;;
18568;SDS011;14780;48.316;-1.050;2022-08-11T12:16:00;1.20;;;0.77;;
18568;SDS011;14780;48.316;-1.050;2022-08-11T12:18:48;1.25;;;0.90;;
18568;SDS011;14780;48.316;-1.050;2022-08-11T12:21:39;1.48;;;0.90;;
18568;SDS011;14780;48.316;-1.050;2022-08-11T12:24:44;1.70;;;1.02;;
18568;SDS011;14780;48.316;-1.050;2022-08-11T12:27:48;1.48;;;0.82;;
18568;SDS011;14780;48.316;-1.050;2022-08-11T12:30:36;1.33;;;0.90;;
18568;SDS011;14780;48.316;-1.050;2022-08-11T12:33:23;1.20;;;0.85;;
18568;SDS011;14780;48.316;-1.050;2022-08-11T12:36:10;1.20;;;0.80;;
18568;SDS011;14780;48.316;-1.050;2022-08-11T12:38:58;1.40;;;0.70;;
18568;SDS011;14780;48.316;-1.050;2022-08-11T12:41:46;1.25;;;0.82;;
18568;SDS011;14780;48.316;-1.050;2022-08-11T12:44:50;1.38;;;0.68;;
18568;SDS011;14780;48.316;-1.050;2022-08-11T12:47:58;1.30;;;0.80;;
18568;SDS011;14780;48.316;-1.050;2022-08-11T12:51:09;1.33;;;0.70;;
18568;SDS011;14780;48.316;-1.050;2022-08-11T12:54:24;1.10;;;0.52;;
18568;SDS011;14780;48.316;-1.050;2022-08-11T12:57:41;1.23;;;0.85;;
18568;SDS011;14780;48.316;-1.050;2022-08-11T13:00:47;0.98;;;0.70;;
18568;SDS011;14780;48.316;-1.050;2022-08-11T13:03:51;0.95;;;0.70;;
18568;SDS011;14780;48.316;-1.050;2022-08-11T13:06:55;2.58;;;0.75;;
18568;SDS011;14780;48.316;-1.050;2022-08-11T13:09:40;1.23;;;0.80;;
18568;SDS011;14780;48.316;-1.050;2022-08-11T13:12:27;1.58;;;0.98;;
18568;SDS011;14780;48.316;-1.050;2022-08-11T13:15:33;1.63;;;0.80;;
18568;SDS011;14780;48.316;-1.050;2022-08-11T13:18:20;1.13;;;0.68;;
18568;SDS011;14780;48.316;-1.050;2022-08-11T13:21:06;0.82;;;0.60;;
18568;SDS011;14780;48.316;-1.050;2022-08-11T13:23:53;1.20;;;0.80;;
18568;SDS011;14780;48.316;-1.050;2022-08-11T13:26:39;1.17;;;0.75;;
18568;SDS011;14780;48.316;-1.050;2022-08-11T13:29:26;1.17;;;0.75;;
18568;SDS011;14780;48.316;-1.050;2022-08-11T13:32:12;1.60;;;0.60;;
18568;SDS011;14780;48.316;-1.050;2022-08-11T13:34:58;1.20;;;0.73;;
18568;SDS011;14780;48.316;-1.050;2022-08-11T13:37:44;1.02;;;0.65;;
18568;SDS011;14780;48.316;-1.050;2022-08-11T13:40:30;0.90;;;0.70;;
18568;SDS011;14780;48.316;-1.050;2022-08-11T13:43:15;1.58;;;1.00;;
18568;SDS011;14780;48.316;-1.050;2022-08-11T13:46:04;1.33;;;0.65;;
18568;SDS011;14780;48.316;-1.050;2022-08-11T13:49:02;1.08;;;0.70;;
18568;SDS011;14780;48.316;-1.050;2022-08-11T13:51:51;1.50;;;0.90;;
18568;SDS011;14780;48.316;-1.050;2022-08-11T13:54:38;0.85;;;0.60;;
18568;SDS011;14780;48.316;-1.050;2022-08-11T13:57:25;2.00;;;0.68;;
18568;SDS011;14780;48.316;-1.050;2022-08-11T14:00:12;0.90;;;0.70;;
18568;SDS011;14780;48.316;-1.050;2022-08-11T14:02:57;0.95;;;0.60;;
18568;SDS011;14780;48.316;-1.050;2022-08-11T14:05:47;0.90;;;0.65;;
18568;SDS011;14780;48.316;-1.050;2022-08-11T14:08:38;1.20;;;0.80;;
18568;SDS011;14780;48.316;-1.050;2022-08-11T14:11:25;1.08;;;0.70;;
18568;SDS011;14780;48.316;-1.050;2022-08-11T14:14:31;0.82;;;0.50;;
18568;SDS011;14780;48.316;-1.050;2022-08-11T14:17:18;0.73;;;0.45;;
18568;SDS011;14780;48.316;-1.050;2022-08-11T14:20:05;0.93;;;0.60;;
18568;SDS011;14780;48.316;-1.050;2022-08-11T14:22:54;1.33;;;0.80;;
18568;SDS011;14780;48.316;-1.050;2022-08-11T14:25:39;0.80;;;0.70;;
18568;SDS011;14780;48.316;-1.050;2022-08-11T14:28:45;1.02;;;0.60;;
18568;SDS011;14780;48.316;-1.050;2022-08-11T14:31:31;0.50;;;0.40;;
18568;SDS011;14780;48.316;-1.050;2022-08-11T14:34:20;1.00;;;0.70;;
18568;SDS011;14780;48.316;-1.050;2022-08-11T14:37:11;0.63;;;0.47;;
18568;SDS011;14780;48.316;-1.050;2022-08-11T14:39:58;0.73;;;0.50;;
18568;SDS011;14780;48.316;-1.050;2022-08-11T14:43:04;0.90;;;0.55;;
18568;SDS011;14780;48.316;-1.050;2022-08-11T14:46:08;1.08;;;0.80;;
18568;SDS011;14780;48.316;-1.050;2022-08-11T14:49:12;1.10;;;0.75;;
18568;SDS011;14780;48.316;-1.050;2022-08-11T14:51:57;0.75;;;0.55;;
18568;SDS011;14780;48.316;-1.050;2022-08-11T14:54:44;0.98;;;0.70;;
18568;SDS011;14780;48.316;-1.050;2022-08-11T14:57:50;0.85;;;0.52;;
18568;SDS011;14780;48.316;-1.050;2022-08-11T15:00:36;0.90;;;0.57;;
18568;SDS011;14780;48.316;-1.050;2022-08-11T15:03:27;1.10;;;0.40;;
18568;SDS011;14780;48.316;-1.050;2022-08-11T15:06:14;1.13;;;0.60;;
18568;SDS011;14780;48.316;-1.050;2022-08-11T15:08:59;1.20;;;0.65;;
18568;SDS011;14780;48.316;-1.050;2022-08-11T15:11:45;1.08;;;0.60;;
18568;SDS011;14780;48.316;-1.050;2022-08-11T15:14:50;0.88;;;0.52;;
18568;SDS011;14780;48.316;-1.050;2022-08-11T15:17:54;0.60;;;0.50;;
18568;SDS011;14780;48.316;-1.050;2022-08-11T15:20:42;0.82;;;0.50;;
18568;SDS011;14780;48.316;-1.050;2022-08-11T15:23:46;0.75;;;0.50;;
18568;SDS011;14780;48.316;-1.050;2022-08-11T15:26:50;0.60;;;0.32;;
18568;SDS011;14780;48.316;-1.050;2022-08-11T15:29:55;0.43;;;0.35;;
18568;SDS011;14780;48.316;-1.050;2022-08-11T15:33:02;1.95;;;0.52;;
18568;SDS011;14780;48.316;-1.050;2022-08-11T15:36:08;0.90;;;0.60;;
18568;SDS011;14780;48.316;-1.050;2022-08-11T15:39:18;1.17;;;0.55;;
18568;SDS011;14780;48.316;-1.050;2022-08-11T15:42:12;0.68;;;0.47;;
18568;SDS011;14780;48.316;-1.050;2022-08-11T15:45:21;0.70;;;0.40;;
18568;SDS011;14780;48.316;-1.050;2022-08-11T15:54:19;0.85;;;0.60;;
18568;SDS011;14780;48.316;-1.050;2022-08-11T15:57:09;0.90;;;0.40;;
18568;SDS011;14780;48.316;-1.050;2022-08-11T16:00:19;0.75;;;0.35;;
18568;SDS011;14780;48.316;-1.050;2022-08-11T16:03:23;0.50;;;0.40;;
18568;SDS011;14780;48.316;-1.050;2022-08-11T16:06:27;1.02;;;0.60;;
18568;SDS011;14780;48.316;-1.050;2022-08-11T16:09:14;0.85;;;0.50;;
18568;SDS011;14780;48.316;-1.050;2022-08-11T16:12:05;1.88;;;0.40;;
18568;SDS011;14780;48.316;-1.050;2022-08-11T16:14:53;0.90;;;0.60;;
18568;SDS011;14780;48.316;-1.050;2022-08-11T16:18:04;0.70;;;0.40;;
18568;SDS011;14780;48.316;-1.050;2022-08-11T16:20:51;0.50;;;0.50;;
18568;SDS011;14780;48.316;-1.050;2022-08-11T16:23:39;1.35;;;0.50;;
18568;SDS011;14780;48.316;-1.050;2022-08-11T16:26:28;0.95;;;0.45;;
18568;SDS011;14780;48.316;-1.050;2022-08-11T16:29:13;0.90;;;0.50;;
18568;SDS011;14780;48.316;-1.050;2022-08-11T16:31:59;0.60;;;0.50;;
18568;SDS011;14780;48.316;-1.050;2022-08-11T16:35:02;0.60;;;0.43;;
18568;SDS011;14780;48.316;-1.050;2022-08-11T16:38:10;1.00;;;0.60;;
18568;SDS011;14780;48.316;-1.050;2022-08-11T16:41:16;0.70;;;0.50;;
18568;SDS011;14780;48.316;-1.050;2022-08-11T16:44:23;1.10;;;0.77;;
18568;SDS011;14780;48.316;-1.050;2022-08-11T16:47:28;0.95;;;0.60;;
18568;SDS011;14780;48.316;-1.050;2022-08-11T16:50:13;1.17;;;0.50;;
18568;SDS011;14780;48.316;-1.050;2022-08-11T16:53:00;2.03;;;0.60;;
18568;SDS011;14780;48.316;-1.050;2022-08-11T16:55:46;0.75;;;0.55;;
18568;SDS011;14780;48.316;-1.050;2022-08-11T16:58:34;0.73;;;0.50;;
18568;SDS011;14780;48.316;-1.050;2022-08-11T17:04:40;1.13;;;0.50;;
18568;SDS011;14780;48.316;-1.050;2022-08-11T17:07:53;0.47;;;0.40;;
18568;SDS011;14780;48.316;-1.050;2022-08-11T17:11:00;1.20;;;0.70;;
18568;SDS011;14780;48.316;-1.050;2022-08-11T17:14:12;1.05;;;0.63;;
18568;SDS011;14780;48.316;-1.050;2022-08-11T17:17:05;0.77;;;0.50;;
18568;SDS011;14780;48.316;-1.050;2022-08-11T17:20:00;0.93;;;0.40;;
18568;SDS011;14780;48.316;-1.050;2022-08-11T17:22:52;1.17;;;0.50;;
18568;SDS011;14780;48.316;-1.050;2022-08-11T17:25:57;0.57;;;0.52;;
18568;SDS011;14780;48.316;-1.050;2022-08-11T17:28:43;1.10;;;0.60;;
18568;SDS011;14780;48.316;-1.050;2022-08-11T17:31:29;0.80;;;0.50;;
18568;SDS011;14780;48.316;-1.050;2022-08-11T17:34:33;0.60;;;0.50;;
18568;SDS011;14780;48.316;-1.050;2022-08-11T17:37:37;1.20;;;0.60;;
18568;SDS011;14780;48.316;-1.050;2022-08-11T17:40:24;0.90;;;0.60;;
18568;SDS011;14780;48.316;-1.050;2022-08-11T17:43:09;1.05;;;0.55;;
18568;SDS011;14780;48.316;-1.050;2022-08-11T17:46:27;0.70;;;0.50;;
18568;SDS011;14780;48.316;-1.050;2022-08-11T17:49:32;0.80;;;0.50;;
18568;SDS011;14780;48.316;-1.050;2022-08-11T17:52:20;1.00;;;0.70;;
18568;SDS011;14780;48.316;-1.050;2022-08-11T17:55:25;0.90;;;0.60;;
18568;SDS011;14780;48.316;-1.050;2022-08-11T17:58:30;0.77;;;0.50;;
18568;SDS011;14780;48.316;-1.050;2022-08-11T18:01:36;1.05;;;0.50;;
18568;SDS011;14780;48.316;-1.050;2022-08-11T18:04:22;0.70;;;0.50;;
18568;SDS011;14780;48.316;-1.050;2022-08-11T18:07:08;0.90;;;0.70;;
18568;SDS011;14780;48.316;-1.050;2022-08-11T18:10:13;0.60;;;0.40;;
18568;SDS011;14780;48.316;-1.050;2022-08-11T18:13:18;0.75;;;0.50;;
18568;SDS011;14780;48.316;-1.050;2022-08-11T18:16:24;0.70;;;0.47;;
18568;SDS011;14780;48.316;-1.050;2022-08-11T18:19:28;0.93;;;0.70;;
18568;SDS011;14780;48.316;-1.050;2022-08-11T18:22:35;1.30;;;0.60;;
18568;SDS011;14780;48.316;-1.050;2022-08-11T18:25:43;0.85;;;0.57;;
18568;SDS011;14780;48.316;-1.050;2022-08-11T18:28:49;0.68;;;0.50;;
18568;SDS011;14780;48.316;-1.050;2022-08-11T18:31:57;0.80;;;0.50;;
18568;SDS011;14780;48.316;-1.050;2022-08-11T18:35:03;1.10;;;0.50;;
18568;SDS011;14780;48.316;-1.050;2022-08-11T18:38:10;0.95;;;0.50;;
18568;SDS011;14780;48.316;-1.050;2022-08-11T18:41:15;0.95;;;0.70;;
18568;SDS011;14780;48.316;-1.050;2022-08-11T18:44:22;0.80;;;0.40;;
18568;SDS011;14780;48.316;-1.050;2022-08-11T18:47:31;0.55;;;0.30;;
18568;SDS011;14780;48.316;-1.050;2022-08-11T18:50:36;0.30;;;0.30;;
18568;SDS011;14780;48.316;-1.050;2022-08-11T18:53:43;0.82;;;0.50;;
18568;SDS011;14780;48.316;-1.050;2022-08-11T18:56:53;1.13;;;0.60;;
18568;SDS011;14780;48.316;-1.050;2022-08-11T19:00:01;0.90;;;0.60;;
18568;SDS011;14780;48.316;-1.050;2022-08-11T19:03:05;1.42;;;0.45;;
18568;SDS011;14780;48.316;-1.050;2022-08-11T19:06:11;0.85;;;0.60;;
18568;SDS011;14780;48.316;-1.050;2022-08-11T19:09:16;0.73;;;0.50;;
18568;SDS011;14780;48.316;-1.050;2022-08-11T19:12:21;0.57;;;0.38;;
18568;SDS011;14780;48.316;-1.050;2022-08-11T19:15:26;0.88;;;0.50;;
18568;SDS011;14780;48.316;-1.050;2022-08-11T19:18:31;0.75;;;0.50;;
18568;SDS011;14780;48.316;-1.050;2022-08-11T19:21:36;0.70;;;0.40;;
18568;SDS011;14780;48.316;-1.050;2022-08-11T19:24:41;0.85;;;0.50;;
18568;SDS011;14780;48.316;-1.050;2022-08-11T19:27:48;0.73;;;0.45;;
18568;SDS011;14780;48.316;-1.050;2022-08-11T19:30:53;1.00;;;0.45;;
18568;SDS011;14780;48.316;-1.050;2022-08-11T19:33:57;1.35;;;0.70;;
18568;SDS011;14780;48.316;-1.050;2022-08-11T19:37:02;0.98;;;0.60;;
18568;SDS011;14780;48.316;-1.050;2022-08-11T19:40:08;0.63;;;0.50;;
18568;SDS011;14780;48.316;-1.050;2022-08-11T19:43:13;0.50;;;0.50;;
18568;SDS011;14780;48.316;-1.050;2022-08-11T19:46:19;0.75;;;0.50;;
18568;SDS011;14780;48.316;-1.050;2022-08-11T19:49:26;0.95;;;0.52;;
18568;SDS011;14780;48.316;-1.050;2022-08-11T19:52:31;0.68;;;0.57;;
18568;SDS011;14780;48.316;-1.050;2022-08-11T19:55:37;0.90;;;0.50;;
18568;SDS011;14780;48.316;-1.050;2022-08-11T19:58:42;1.45;;;0.60;;
18568;SDS011;14780;48.316;-1.050;2022-08-11T20:01:46;1.05;;;0.60;;
18568;SDS011;14780;48.316;-1.050;2022-08-11T20:04:49;0.60;;;0.40;;
18568;SDS011;14780;48.316;-1.050;2022-08-11T20:07:55;0.68;;;0.50;;
18568;SDS011;14780;48.316;-1.050;2022-08-11T20:11:00;0.75;;;0.50;;
18568;SDS011;14780;48.316;-1.050;2022-08-11T20:14:06;0.70;;;0.40;;
18568;SDS011;14780;48.316;-1.050;2022-08-11T20:17:11;0.65;;;0.40;;
18568;SDS011;14780;48.316;-1.050;2022-08-11T20:20:15;0.60;;;0.30;;
18568;SDS011;14780;48.316;-1.050;2022-08-11T20:23:21;0.80;;;0.50;;
18568;SDS011;14780;48.316;-1.050;2022-08-11T20:26:27;0.82;;;0.55;;
18568;SDS011;14780;48.316;-1.050;2022-08-11T20:29:33;0.73;;;0.50;;
18568;SDS011;14780;48.316;-1.050;2022-08-11T20:32:38;1.30;;;0.60;;
18568;SDS011;14780;48.316;-1.050;2022-08-11T20:35:43;1.17;;;0.70;;
18568;SDS011;14780;48.316;-1.050;2022-08-11T20:38:48;0.70;;;0.47;;
18568;SDS011;14780;48.316;-1.050;2022-08-11T20:41:53;0.60;;;0.50;;
18568;SDS011;14780;48.316;-1.050;2022-08-11T20:44:59;0.80;;;0.60;;